Time;durP1;ratioP1;P1;durP2;ratioP2;P2;SDS_P1;SDS_P2;PMS_P1;PMS_P2;Temp;Humidity;BMP_temperature;BMP_pressure;BME280_temperature;BME280_humidity;BME280_pressure;Samples;Min_cycle;Max_cycle;Signal;HPM_P1;HPM_P2
2022/06/04 00:00:48;;;;;;;;;;;;;;;24.48;55.59;99412.13;2089597;28;20224;-49
2022/06/04 00:01:49;;;;;;;;;;;;;;;24.48;55.44;99416.78;2080010;28;20538;-49
2022/06/04 00:02:50;;;;;;;;;;;;;;;24.47;55.60;99415.91;2090341;28;19923;-51
2022/06/04 00:03:50;;;;;;;;;;;;;;;24.48;55.60;99416.78;2082404;28;19916;-49
2022/06/04 00:04:51;;;;;;;;;;;;;;;24.48;55.50;99423.16;2085818;28;19961;-51
2022/06/04 00:05:53;;;;;;;;;;;;;;;24.48;55.48;99417.63;2091082;28;19967;-51
2022/06/04 00:06:53;;;;;;;;;;;;;;;24.48;55.46;99414.03;2083603;28;20452;-49
2022/06/04 00:07:54;;;;;;;;;;;;;;;24.47;55.43;99413.16;2083496;28;19917;-50
2022/06/04 00:08:55;;;;;;;;;;;;;;;24.47;55.64;99415.91;2089538;28;19923;-52
2022/06/04 00:15:29;;;;;;;;;;;;;;;24.46;55.60;99403.22;2076102;28;19960;-52
2022/06/04 00:16:29;;;;;;;;;;;;;;;24.46;55.76;99402.38;2075982;28;19974;-51
2022/06/04 00:17:30;;;;;;;;;;;;;;;24.45;55.69;99407.00;2083612;28;20382;-52
2022/06/04 00:18:30;;;;;;;;;;;;;;;24.46;55.69;99402.38;2081266;28;19909;-52
2022/06/04 00:19:31;;;;;;;;;;;;;;;24.46;55.76;99396.84;2082371;28;19909;-52
2022/06/04 00:20:31;;;;;;;;;;;;;;;24.46;55.62;99391.34;2076482;28;20241;-50
2022/06/04 00:21:31;;;;;;;;;;;;;;;24.45;55.68;99392.34;2080794;28;19920;-51
2022/06/04 00:22:32;;;;;;;;;;;;;;;24.45;55.78;99395.09;2084268;28;20632;-52
2022/06/04 00:23:32;;;;;;;;;;;;;;;24.44;55.70;99394.25;2080846;28;19966;-52
2022/06/04 00:24:33;;;;;;;;;;;;;;;24.44;55.98;99393.41;2085453;28;20372;-51
2022/06/04 00:25:34;;;;;;;;;;;;;;;24.45;55.93;99400.59;2084887;28;19924;-49
2022/06/04 00:26:35;;;;;;;;;;;;;;;24.45;55.89;99400.59;2082294;28;19917;-52
2022/06/04 00:27:35;;;;;;;;;;;;;;;24.45;55.98;99400.59;2085157;28;19966;-50
2022/06/04 00:28:36;;;;;;;;;;;;;;;24.45;56.04;99400.59;2080738;28;19920;-52
2022/06/04 00:29:36;;;;;;;;;;;;;;;24.44;56.08;99405.28;2079534;28;19919;-50
2022/06/04 00:30:37;;;;;;;;;;;;;;;24.45;56.04;99400.59;2078420;28;19923;-49
2022/06/04 00:31:37;;;;;;;;;;;;;;;24.44;55.96;99399.78;2081675;28;19923;-50
2022/06/04 00:32:38;;;;;;;;;;;;;;;24.45;55.94;99400.59;2078773;28;20402;-51
2022/06/04 00:33:39;;;;;;;;;;;;;;;24.44;55.86;99402.53;2076238;28;19920;-49
2022/06/04 00:34:39;;;;;;;;;;;;;;;24.44;55.99;99405.28;2081653;28;20230;-52
2022/06/04 00:35:40;;;;;;;;;;;;;;;24.45;55.83;99397.84;2079674;28;20126;-49
2022/06/04 00:36:40;;;;;;;;;;;;;;;24.45;56.05;99395.97;2079931;28;20094;-52
2022/06/04 00:37:40;;;;;;;;;;;;;;;24.45;55.90;99406.13;2085114;28;20137;-51
2022/06/04 00:38:41;;;;;;;;;;;;;;;24.46;55.90;99407.88;2077136;28;20136;-52
2022/06/04 00:39:42;;;;;;;;;;;;;;;24.45;55.76;99403.38;2080088;28;20475;-52
2022/06/04 00:40:45;;;;;;;;;;;;;;;24.45;55.84;99403.38;2081443;28;19916;-51
2022/06/04 00:41:54;;;;;;;;;;;;;;;24.45;55.82;99400.59;2076872;28;20297;-52
2022/06/04 00:42:55;;;;;;;;;;;;;;;24.45;55.93;99397.84;2081987;28;20323;-49
2022/06/04 00:43:59;;;;;;;;;;;;;;;24.45;55.71;99400.59;2082956;28;19920;-52
2022/06/04 00:45:18;;;;;;;;;;;;;;;24.45;55.84;99395.09;2085392;28;20169;-50
2022/06/04 00:46:30;;;;;;;;;;;;;;;24.45;55.71;99389.59;2080655;28;19932;-50
2022/06/04 00:47:31;;;;;;;;;;;;;;;24.45;55.76;99395.09;2085862;28;19920;-50
2022/06/04 00:48:32;;;;;;;;;;;;;;;24.45;55.79;99395.97;2078341;28;19971;-49
2022/06/04 00:49:32;;;;;;;;;;;;;;;24.45;55.78;99390.47;2082813;28;19909;-49
2022/06/04 00:50:35;;;;;;;;;;;;;;;24.45;55.84;99401.50;2080242;28;19917;-52
2022/06/04 00:51:35;;;;;;;;;;;;;;;24.46;55.90;99402.38;2082938;28;20285;-51
2022/06/04 00:52:36;;;;;;;;;;;;;;;24.44;55.97;99394.25;2081667;28;19921;-49
2022/06/04 00:53:37;;;;;;;;;;;;;;;24.46;55.82;99399.59;2079922;28;20016;-52
2022/06/04 00:54:38;;;;;;;;;;;;;;;24.45;55.77;99407.00;2082576;28;20218;-50
2022/06/04 00:55:45;;;;;;;;;;;;;;;24.45;55.83;99406.13;2080729;28;20640;-52
2022/06/04 00:57:04;;;;;;;;;;;;;;;24.45;55.86;99411.63;2078895;28;20106;-51
2022/06/04 00:58:13;;;;;;;;;;;;;;;24.45;55.77;99404.25;2084031;28;19912;-51
2022/06/04 00:59:28;;;;;;;;;;;;;;;24.45;55.83;99403.38;2081120;28;20371;-52
2022/06/04 01:00:33;;;;;;;;;;;;;;;24.46;55.96;99407.88;2080719;28;19925;-51
2022/06/04 01:01:57;;;;;;;;;;;;;;;24.45;55.85;99406.13;2080874;28;19930;-50
2022/06/04 01:03:06;;;;;;;;;;;;;;;24.45;55.81;99407.00;2075961;28;20005;-51
2022/06/04 01:05:10;;;;;;;;;;;;;;;24.45;55.76;99406.13;2080048;28;19908;-50
2022/06/04 01:05:55;;;;;;;;;;;;;;;24.44;55.78;99409.94;2081039;28;20285;-51
2022/06/04 01:06:58;;;;;;;;;;;;;;;24.45;55.77;99406.13;2084146;28;19914;-49
2022/06/04 01:07:58;;;;;;;;;;;;;;;24.44;55.86;99412.69;2079485;28;19917;-51
2022/06/04 01:08:58;;;;;;;;;;;;;;;24.44;55.80;99409.94;2080452;28;20915;-51
2022/06/04 01:09:59;;;;;;;;;;;;;;;24.44;55.92;99401.69;2081975;28;19913;-50
2022/06/04 01:11:17;;;;;;;;;;;;;;;24.44;55.90;99401.69;2076354;28;19960;-50
2022/06/04 01:12:36;;;;;;;;;;;;;;;24.43;56.12;99403.59;2079000;28;20136;-51
2022/06/04 01:13:51;;;;;;;;;;;;;;;24.43;55.84;99408.25;2077847;28;19947;-51
2022/06/04 01:14:52;;;;;;;;;;;;;;;24.43;55.85;99409.09;2092255;28;20036;-50
2022/06/04 01:16:11;;;;;;;;;;;;;;;24.42;55.99;99409.28;2086412;28;20368;-50
2022/06/04 01:17:26;;;;;;;;;;;;;;;24.44;55.67;99415.44;2078627;28;19916;-52
2022/06/04 01:18:33;;;;;;;;;;;;;;;24.43;55.98;99408.25;2077539;28;19986;-52
2022/06/04 01:19:49;;;;;;;;;;;;;;;24.44;55.71;99415.44;2086758;28;19923;-50
2022/06/04 01:21:08;;;;;;;;;;;;;;;24.43;55.85;99409.09;2084553;28;20003;-52
2022/06/04 01:22:31;;;;;;;;;;;;;;;24.44;55.69;99415.44;2077523;28;20465;-49
2022/06/04 01:23:38;;;;;;;;;;;;;;;24.43;55.83;99413.75;2078674;28;20021;-50
2022/06/04 01:24:58;;;;;;;;;;;;;;;24.43;55.69;99409.09;2093328;28;19916;-51
2022/06/04 01:26:17;;;;;;;;;;;;;;;24.43;55.86;99416.53;2083196;28;19923;-48
2022/06/04 01:27:17;;;;;;;;;;;;;;;24.43;55.79;99413.75;2083179;28;20223;-51
2022/06/04 01:28:17;;;;;;;;;;;;;;;24.43;55.72;99411.84;2091829;28;19909;-57
2022/06/04 01:29:20;;;;;;;;;;;;;;;24.44;55.80;99415.44;2081023;28;19986;-51
2022/06/04 01:30:23;;;;;;;;;;;;;;;24.44;55.80;99418.22;2083591;28;19916;-49
2022/06/04 01:31:27;;;;;;;;;;;;;;;24.43;55.91;99413.75;2088364;28;20398;-50
2022/06/04 01:32:27;;;;;;;;;;;;;;;24.43;55.92;99411.00;2079389;28;19916;-49
2022/06/04 01:33:36;;;;;;;;;;;;;;;24.43;55.77;99411.00;2082187;28;19932;-49
2022/06/04 01:34:42;;;;;;;;;;;;;;;24.42;55.65;99412.88;2074941;28;20477;-47
2022/06/04 01:35:50;;;;;;;;;;;;;;;24.42;55.84;99410.13;2079258;28;19912;-49
2022/06/04 01:36:53;;;;;;;;;;;;;;;24.43;55.90;99408.25;2084312;28;19912;-47
2022/06/04 01:37:56;;;;;;;;;;;;;;;24.42;55.79;99412.88;2079839;28;19917;-49
2022/06/04 01:39:04;;;;;;;;;;;;;;;24.43;55.80;99408.25;2082294;28;19920;-50
2022/06/04 01:41:33;;;;;;;;;;;;;;;24.43;55.93;99413.75;2085716;28;19963;-46
2022/06/04 01:42:34;;;;;;;;;;;;;;;24.43;55.77;99416.53;2086256;28;19917;-49
2022/06/04 01:43:34;;;;;;;;;;;;;;;24.42;55.81;99412.03;2082197;28;20469;-47
2022/06/04 01:44:36;;;;;;;;;;;;;;;24.43;55.90;99416.53;2082077;28;19921;-50
2022/06/04 01:45:38;;;;;;;;;;;;;;;24.43;55.81;99416.53;2089032;28;20361;-47
2022/06/04 01:46:41;;;;;;;;;;;;;;;24.42;55.85;99428.56;2082137;28;19909;-50
2022/06/04 01:47:43;;;;;;;;;;;;;;;24.42;55.77;99429.41;2091435;28;20234;-50
2022/06/04 01:48:45;;;;;;;;;;;;;;;24.42;56.04;99431.31;2083803;28;20252;-48
2022/06/04 01:49:47;;;;;;;;;;;;;;;24.42;55.94;99431.31;2083550;28;19932;-49
2022/06/04 01:50:51;;;;;;;;;;;;;;;24.42;55.92;99434.09;2082605;28;19932;-48
2022/06/04 01:51:55;;;;;;;;;;;;;;;24.40;55.88;99431.53;2085176;28;19912;-47
2022/06/04 01:52:57;;;;;;;;;;;;;;;24.41;56.04;99437.91;2077794;28;20016;-48
2022/06/04 01:54:01;;;;;;;;;;;;;;;24.41;55.90;99437.91;2076579;28;19924;-49
2022/06/04 01:55:21;;;;;;;;;;;;;;;24.41;56.00;99443.41;2085721;28;20149;-48
2022/06/04 01:56:34;;;;;;;;;;;;;;;24.42;56.05;99445.09;2081663;28;19917;-46
2022/06/04 01:57:41;;;;;;;;;;;;;;;24.41;55.95;99437.91;2083003;28;20634;-46
2022/06/04 01:58:50;;;;;;;;;;;;;;;24.41;56.16;99437.91;2081669;28;19923;-49
2022/06/04 01:59:52;;;;;;;;;;;;;;;24.41;56.09;99440.66;2084221;28;19959;-47
2022/06/04 02:00:55;;;;;;;;;;;;;;;24.41;55.93;99443.41;2084542;28;19916;-50
2022/06/04 02:01:58;;;;;;;;;;;;;;;24.41;55.86;99443.41;2089063;28;19915;-47
2022/06/04 02:03:02;;;;;;;;;;;;;;;24.41;56.05;99438.75;2081473;28;20195;-49
2022/06/04 02:04:08;;;;;;;;;;;;;;;24.41;55.94;99437.91;2082310;28;20149;-48
2022/06/04 02:05:12;;;;;;;;;;;;;;;24.41;56.04;99436.00;2090596;28;20012;-48
2022/06/04 02:06:23;;;;;;;;;;;;;;;24.41;55.99;99432.38;2088251;28;19991;-51
2022/06/04 02:07:31;;;;;;;;;;;;;;;24.40;55.89;99434.31;2083477;28;19915;-52
2022/06/04 02:08:38;;;;;;;;;;;;;;;24.41;55.96;99441.50;2077652;28;19917;-51
2022/06/04 02:09:44;;;;;;;;;;;;;;;24.39;55.72;99441.69;2076945;28;19966;-48
2022/06/04 02:10:49;;;;;;;;;;;;;;;24.41;55.89;99448.91;2084294;28;20285;-52
2022/06/04 02:11:52;;;;;;;;;;;;;;;24.40;55.95;99450.81;2085378;28;19924;-51
2022/06/04 02:12:55;;;;;;;;;;;;;;;24.41;55.93;99448.91;2080588;28;20001;-51
2022/06/04 02:13:58;;;;;;;;;;;;;;;24.40;55.95;99448.06;2078735;28;19920;-50
2022/06/04 02:14:58;;;;;;;;;;;;;;;24.39;55.92;99447.19;2079917;28;19917;-49
2022/06/04 02:16:06;;;;;;;;;;;;;;;24.40;56.01;99445.31;2079740;28;19909;-52
2022/06/04 02:17:08;;;;;;;;;;;;;;;24.39;56.08;99447.19;2079199;28;19916;-49
2022/06/04 02:18:10;;;;;;;;;;;;;;;24.40;55.99;99448.06;2080342;28;19927;-52
2022/06/04 02:19:10;;;;;;;;;;;;;;;24.39;56.00;99441.69;2080916;28;19920;-51
2022/06/04 02:20:11;;;;;;;;;;;;;;;24.40;56.01;99448.06;2076555;28;20281;-51
2022/06/04 02:21:11;;;;;;;;;;;;;;;24.39;55.82;99451.84;2078418;28;19916;-50
2022/06/04 02:22:12;;;;;;;;;;;;;;;24.39;56.04;99441.69;2085263;28;20433;-49
2022/06/04 02:23:12;;;;;;;;;;;;;;;24.37;55.97;99449.28;2080614;28;20255;-52
2022/06/04 02:24:13;;;;;;;;;;;;;;;24.39;55.95;99451.84;2081508;28;19913;-52
2022/06/04 02:25:14;;;;;;;;;;;;;;;24.39;55.92;99452.72;2082986;28;19916;-48
2022/06/04 02:26:17;;;;;;;;;;;;;;;24.38;56.01;99451.03;2080028;28;19913;-51
2022/06/04 02:27:17;;;;;;;;;;;;;;;24.38;55.92;99455.69;2084022;28;19909;-50
2022/06/04 02:28:17;;;;;;;;;;;;;;;24.39;55.87;99457.38;2077554;28;20319;-49
2022/06/04 02:29:19;;;;;;;;;;;;;;;24.37;55.94;99454.81;2085699;28;20372;-52
2022/06/04 02:30:20;;;;;;;;;;;;;;;24.38;56.02;99450.16;2078711;28;19917;-50
2022/06/04 02:31:21;;;;;;;;;;;;;;;24.37;56.03;99449.28;2075880;28;19915;-49
2022/06/04 02:32:33;;;;;;;;;;;;;;;24.37;56.08;99441.03;2084004;28;19913;-49
2022/06/04 02:33:57;;;;;;;;;;;;;;;24.36;56.15;99439.34;2075992;28;20017;-48
2022/06/04 02:35:16;;;;;;;;;;;;;;;24.37;56.10;99442.94;2077208;28;20513;-51
2022/06/04 02:36:30;;;;;;;;;;;;;;;24.37;55.95;99454.81;2076716;28;19925;-50
2022/06/04 02:37:34;;;;;;;;;;;;;;;24.37;56.14;99457.56;2076995;28;19908;-48
2022/06/04 02:38:44;;;;;;;;;;;;;;;24.37;56.00;99449.28;2082136;28;19960;-52
2022/06/04 02:40:01;;;;;;;;;;;;;;;24.38;56.10;99458.44;2077732;28;20317;-48
2022/06/04 02:41:05;;;;;;;;;;;;;;;24.37;56.11;99454.81;2077366;28;20043;-50
2022/06/04 02:42:05;;;;;;;;;;;;;;;24.38;56.13;99451.03;2081624;28;20331;-51
2022/06/04 02:43:11;;;;;;;;;;;;;;;24.37;56.02;99443.78;2078713;28;19917;-50
2022/06/04 02:44:17;;;;;;;;;;;;;;;24.37;55.96;99452.06;2085744;28;19927;-50
2022/06/04 02:45:22;;;;;;;;;;;;;;;24.37;56.06;99454.81;2084906;28;19923;-50
2022/06/04 02:46:29;;;;;;;;;;;;;;;24.38;56.03;99448.25;2090306;28;20003;-49
2022/06/04 02:47:39;;;;;;;;;;;;;;;24.37;55.97;99449.28;2083690;28;19917;-49
2022/06/04 02:48:41;;;;;;;;;;;;;;;24.37;56.10;99454.81;2078598;28;19917;-49
2022/06/04 02:49:46;;;;;;;;;;;;;;;24.37;55.98;99459.47;2075349;28;20247;-50
2022/06/04 02:51:10;;;;;;;;;;;;;;;24.36;56.13;99452.28;2084199;28;20109;-51
2022/06/04 02:52:13;;;;;;;;;;;;;;;24.37;55.98;99454.81;2080056;28;19917;-48
2022/06/04 02:53:14;;;;;;;;;;;;;;;24.37;56.11;99454.81;2080764;28;19923;-49
2022/06/04 02:54:20;;;;;;;;;;;;;;;24.37;56.00;99454.81;2078415;28;20208;-49
2022/06/04 02:55:24;;;;;;;;;;;;;;;24.36;56.01;99461.38;2074642;28;20021;-50
2022/06/04 02:56:30;;;;;;;;;;;;;;;24.37;55.86;99460.31;2080038;28;20247;-49
2022/06/04 02:57:32;;;;;;;;;;;;;;;24.36;55.93;99453.13;2083528;28;20269;-52
2022/06/04 02:58:33;;;;;;;;;;;;;;;24.37;56.10;99460.31;2078541;28;19924;-50
2022/06/04 02:59:34;;;;;;;;;;;;;;;24.36;56.12;99455.88;2076354;28;20019;-51
2022/06/04 03:00:35;;;;;;;;;;;;;;;24.36;56.04;99458.63;2076905;28;20274;-50
2022/06/04 03:01:39;;;;;;;;;;;;;;;24.36;56.09;99455.03;2079051;28;19963;-51
2022/06/04 03:02:39;;;;;;;;;;;;;;;24.35;55.96;99456.94;2084048;28;20429;-52
2022/06/04 03:03:40;;;;;;;;;;;;;;;24.36;56.12;99458.63;2082150;28;19908;-50
2022/06/04 03:04:49;;;;;;;;;;;;;;;24.36;56.00;99455.88;2076840;28;20208;-52
2022/06/04 03:05:51;;;;;;;;;;;;;;;24.36;55.91;99457.78;2076265;28;19924;-50
2022/06/04 03:06:51;;;;;;;;;;;;;;;24.35;55.96;99456.94;2082393;28;19916;-49
2022/06/04 03:07:56;;;;;;;;;;;;;;;24.35;55.94;99456.94;2078070;28;19999;-51
2022/06/04 03:08:57;;;;;;;;;;;;;;;24.36;56.15;99460.53;2077163;28;19923;-52
2022/06/04 03:10:01;;;;;;;;;;;;;;;24.34;56.05;99457.97;2080777;28;19935;-50
2022/06/04 03:11:02;;;;;;;;;;;;;;;24.35;56.11;99462.44;2080158;28;19927;-51
2022/06/04 03:12:02;;;;;;;;;;;;;;;24.35;56.08;99454.19;2084364;28;19924;-51
2022/06/04 03:13:03;;;;;;;;;;;;;;;24.35;56.24;99454.19;2076258;28;20463;-49
2022/06/04 03:14:03;;;;;;;;;;;;;;;24.34;56.23;99457.97;2082111;28;19920;-49
2022/06/04 03:15:04;;;;;;;;;;;;;;;24.34;56.15;99452.47;2077198;28;20158;-51
2022/06/04 03:16:05;;;;;;;;;;;;;;;24.34;56.39;99459.88;2083308;28;19935;-48
2022/06/04 03:17:09;;;;;;;;;;;;;;;24.34;56.13;99460.72;2086580;28;19924;-50
2022/06/04 03:18:10;;;;;;;;;;;;;;;24.34;56.23;99455.22;2079802;28;19920;-51
2022/06/04 03:19:11;;;;;;;;;;;;;;;24.34;56.13;99460.72;2080522;28;20003;-52
2022/06/04 03:20:12;;;;;;;;;;;;;;;24.34;56.17;99460.72;2080749;28;19917;-51
2022/06/04 03:21:12;;;;;;;;;;;;;;;24.34;56.16;99446.94;2080007;28;20384;-50
2022/06/04 03:22:13;;;;;;;;;;;;;;;24.34;56.08;99455.22;2082122;28;19947;-48
2022/06/04 03:23:13;;;;;;;;;;;;;;;24.34;56.08;99457.97;2076661;28;19927;-49
2022/06/04 03:24:15;;;;;;;;;;;;;;;24.35;56.10;99461.56;2085876;28;20262;-50
2022/06/04 03:25:15;;;;;;;;;;;;;;;24.34;56.14;99455.22;2084306;28;20372;-51
2022/06/04 03:26:16;;;;;;;;;;;;;;;24.34;56.12;99460.72;2078857;28;19962;-51
2022/06/04 03:27:16;;;;;;;;;;;;;;;24.35;56.12;99456.06;2080498;28;19917;-49
2022/06/04 03:28:16;;;;;;;;;;;;;;;24.34;56.08;99460.72;2078892;28;19910;-48
2022/06/04 03:29:17;;;;;;;;;;;;;;;24.34;56.12;99460.72;2077458;28;20297;-52
2022/06/04 03:30:17;;;;;;;;;;;;;;;24.34;56.25;99460.72;2082419;28;19923;-48
2022/06/04 03:31:17;;;;;;;;;;;;;;;24.34;56.22;99454.38;2077541;28;20007;-50
2022/06/04 03:32:17;;;;;;;;;;;;;;;24.33;56.08;99458.19;2082547;28;19908;-49
2022/06/04 03:33:18;;;;;;;;;;;;;;;24.32;56.12;99457.31;2080712;28;20350;-50
2022/06/04 03:34:18;;;;;;;;;;;;;;;24.33;56.15;99463.69;2082824;28;19922;-49
2022/06/04 03:35:19;;;;;;;;;;;;;;;24.33;56.25;99463.69;2084053;28;20460;-49
2022/06/04 03:36:21;;;;;;;;;;;;;;;24.33;56.21;99459.03;2084289;28;19913;-49
2022/06/04 03:37:21;;;;;;;;;;;;;;;24.33;56.14;99459.03;2080472;28;20241;-48
2022/06/04 03:38:21;;;;;;;;;;;;;;;24.33;56.18;99464.53;2082003;28;19912;-50
2022/06/04 03:39:22;;;;;;;;;;;;;;;24.33;56.26;99467.28;2077636;28;19923;-52
2022/06/04 03:40:22;;;;;;;;;;;;;;;24.32;56.22;99465.56;2082689;28;19999;-52
2022/06/04 03:41:23;;;;;;;;;;;;;;;24.34;56.17;99465.38;2080840;28;20581;-51
2022/06/04 03:42:23;;;;;;;;;;;;;;;24.33;56.09;99459.03;2081678;28;19975;-48
2022/06/04 03:43:23;;;;;;;;;;;;;;;24.33;56.26;99464.53;2085675;28;20298;-52
2022/06/04 03:44:24;;;;;;;;;;;;;;;24.33;56.37;99470.03;2084140;28;19974;-51
2022/06/04 03:45:26;;;;;;;;;;;;;;;24.32;56.23;99468.31;2085307;28;19959;-50
2022/06/04 03:46:27;;;;;;;;;;;;;;;24.33;56.26;99466.44;2081246;28;19915;-50
2022/06/04 03:47:28;;;;;;;;;;;;;;;24.33;56.14;99469.19;2081264;28;20329;-51
2022/06/04 03:48:28;;;;;;;;;;;;;;;24.32;56.27;99471.06;2085414;28;20289;-52
2022/06/04 03:49:29;;;;;;;;;;;;;;;24.33;56.16;99474.72;2086194;28;19916;-50
2022/06/04 03:50:29;;;;;;;;;;;;;;;24.33;56.21;99480.22;2083752;28;19916;-49
2022/06/04 03:51:30;;;;;;;;;;;;;;;24.33;56.11;99475.56;2078446;28;19912;-50
2022/06/04 03:52:30;;;;;;;;;;;;;;;24.33;56.31;99475.56;2085387;28;20318;-49
2022/06/04 03:53:31;;;;;;;;;;;;;;;24.33;56.15;99481.06;2084242;28;19923;-52
2022/06/04 03:55:50;;;;;;;;;;;;;;;24.33;56.10;99480.22;2085997;28;20234;-50
2022/06/04 03:57:37;;;;;;;;;;;;;;;24.32;56.23;99479.34;2085701;28;20210;-48
2022/06/04 03:58:10;;;;;;;;;;;;;;;24.31;56.24;99477.66;2079965;28;19913;-48
2022/06/04 03:59:11;;;;;;;;;;;;;;;24.31;56.14;99472.16;2086123;28;19913;-50
2022/06/04 04:00:12;;;;;;;;;;;;;;;24.31;56.12;99477.66;2077500;28;20088;-52
2022/06/04 04:01:17;;;;;;;;;;;;;;;24.31;56.10;99474.06;2080309;28;20097;-51
2022/06/04 04:02:17;;;;;;;;;;;;;;;24.32;56.19;99473.84;2079334;28;20357;-50
2022/06/04 04:03:18;;;;;;;;;;;;;;;24.31;56.34;99476.81;2080721;28;20468;-51
2022/06/04 04:04:18;;;;;;;;;;;;;;;24.31;56.18;99472.16;2073269;28;19920;-50
2022/06/04 04:05:22;;;;;;;;;;;;;;;24.32;56.36;99473.00;2075999;28;20360;-50
2022/06/04 04:06:24;;;;;;;;;;;;;;;24.30;56.47;99467.69;2092096;28;20033;-50
2022/06/04 04:07:24;;;;;;;;;;;;;;;24.30;56.23;99473.22;2085080;28;19922;-48
2022/06/04 04:08:25;;;;;;;;;;;;;;;24.30;56.57;99470.44;2082806;28;19917;-50
2022/06/04 04:09:25;;;;;;;;;;;;;;;24.30;56.54;99469.56;2086741;28;19947;-48
2022/06/04 04:10:27;;;;;;;;;;;;;;;24.30;56.59;99475.97;2083096;28;19917;-48
2022/06/04 04:11:27;;;;;;;;;;;;;;;24.30;56.52;99475.97;2087149;28;20011;-50
2022/06/04 04:12:28;;;;;;;;;;;;;;;24.30;56.36;99481.47;2086092;28;19912;-52
2022/06/04 04:13:29;;;;;;;;;;;;;;;24.30;56.50;99481.47;2080210;28;19920;-52
2022/06/04 04:14:29;;;;;;;;;;;;;;;24.30;56.47;99481.47;2084590;28;19939;-52
2022/06/04 04:15:29;;;;;;;;;;;;;;;24.30;56.40;99489.72;2080657;28;20296;-52
2022/06/04 04:16:30;;;;;;;;;;;;;;;24.30;56.42;99492.50;2086548;28;19908;-51
2022/06/04 04:17:30;;;;;;;;;;;;;;;24.31;56.25;99493.34;2081657;28;19954;-51
2022/06/04 04:18:31;;;;;;;;;;;;;;;24.31;56.50;99494.19;2081233;28;19909;-50
2022/06/04 04:19:31;;;;;;;;;;;;;;;24.29;56.34;99490.75;2078949;28;20087;-48
2022/06/04 04:20:32;;;;;;;;;;;;;;;24.30;56.20;99492.50;2081345;28;19920;-52
2022/06/04 04:21:39;;;;;;;;;;;;;;;24.31;56.40;99498.84;2079043;28;20280;-51
2022/06/04 04:22:39;;;;;;;;;;;;;;;24.31;56.39;99502.44;2082250;28;19920;-51
2022/06/04 04:23:40;;;;;;;;;;;;;;;24.30;56.36;99491.63;2077867;28;19967;-50
2022/06/04 04:24:41;;;;;;;;;;;;;;;24.31;56.24;99498.84;2081253;28;19921;-49
2022/06/04 04:25:42;;;;;;;;;;;;;;;24.30;56.47;99492.50;2083634;28;19912;-52
2022/06/04 04:26:42;;;;;;;;;;;;;;;24.30;56.41;99506.25;2083773;28;19919;-50
2022/06/04 04:27:42;;;;;;;;;;;;;;;24.29;56.32;99501.78;2084593;28;19912;-52
2022/06/04 04:28:43;;;;;;;;;;;;;;;24.29;56.33;99501.78;2082964;28;19912;-51
2022/06/04 04:29:43;;;;;;;;;;;;;;;24.29;56.28;99507.28;2079416;28;19935;-50
2022/06/04 04:30:45;;;;;;;;;;;;;;;24.30;56.30;99510.88;2081645;28;19916;-49
2022/06/04 04:31:45;;;;;;;;;;;;;;;24.29;56.41;99506.44;2084067;28;19916;-52
2022/06/04 04:32:46;;;;;;;;;;;;;;;24.29;56.30;99507.28;2082083;28;20124;-51
2022/06/04 04:33:46;;;;;;;;;;;;;;;24.30;56.42;99508.13;2080636;28;20010;-48
2022/06/04 04:34:47;;;;;;;;;;;;;;;24.28;56.41;99500.09;2086680;28;19920;-51
2022/06/04 04:35:47;;;;;;;;;;;;;;;24.30;56.41;99508.13;2083819;28;19916;-51
2022/06/04 04:36:48;;;;;;;;;;;;;;;24.29;56.35;99507.28;2084612;28;20009;-49
2022/06/04 04:37:48;;;;;;;;;;;;;;;24.28;56.30;99502.84;2083359;28;19920;-50
2022/06/04 04:38:49;;;;;;;;;;;;;;;24.29;56.35;99506.44;2084501;28;20718;-49
2022/06/04 04:39:50;;;;;;;;;;;;;;;24.28;56.34;99502.84;2085105;28;19914;-52
2022/06/04 04:40:50;;;;;;;;;;;;;;;24.28;56.45;99499.25;2079462;28;19920;-49
2022/06/04 04:41:50;;;;;;;;;;;;;;;24.28;56.26;99507.50;2079059;28;19916;-50
2022/06/04 04:42:51;;;;;;;;;;;;;;;24.28;56.37;99499.25;2085170;28;20321;-51
2022/06/04 04:43:51;;;;;;;;;;;;;;;24.28;56.56;99504.75;2082630;28;19952;-49
2022/06/04 04:44:52;;;;;;;;;;;;;;;24.28;56.54;99504.75;2084361;28;20007;-50
2022/06/04 04:45:59;;;;;;;;;;;;;;;24.28;56.49;99500.09;2087315;28;19912;-52
2022/06/04 04:47:00;;;;;;;;;;;;;;;24.27;56.37;99495.63;2079023;28;19923;-51
2022/06/04 04:48:01;;;;;;;;;;;;;;;24.28;56.34;99505.59;2083394;28;19905;-51
2022/06/04 04:49:01;;;;;;;;;;;;;;;24.27;56.53;99497.53;2086251;28;19960;-51
2022/06/04 04:50:03;;;;;;;;;;;;;;;24.27;56.43;99503.88;2081840;28;19966;-50
2022/06/04 04:51:04;;;;;;;;;;;;;;;24.27;56.50;99498.38;2084297;28;19912;-52
2022/06/04 04:52:04;;;;;;;;;;;;;;;24.27;56.47;99509.38;2070564;28;19917;-51
2022/06/04 04:53:07;;;;;;;;;;;;;;;24.27;56.43;99508.53;2084043;28;20330;-50
2022/06/04 04:54:07;;;;;;;;;;;;;;;24.27;56.46;99503.88;2083742;28;19920;-48
2022/06/04 04:55:07;;;;;;;;;;;;;;;24.27;56.50;99509.38;2083864;28;19916;-49
2022/06/04 04:56:08;;;;;;;;;;;;;;;24.27;56.46;99506.63;2085873;28;19982;-48
2022/06/04 04:57:08;;;;;;;;;;;;;;;24.28;56.35;99505.59;2084597;28;20311;-48
2022/06/04 04:58:09;;;;;;;;;;;;;;;24.27;56.36;99498.38;2079658;28;19916;-49
2022/06/04 04:59:09;;;;;;;;;;;;;;;24.27;56.49;99503.88;2085041;28;19920;-50
2022/06/04 05:00:10;;;;;;;;;;;;;;;24.27;56.46;99492.00;2087190;28;19921;-50
2022/06/04 05:01:14;;;;;;;;;;;;;;;24.27;56.46;99497.53;2084847;28;19917;-51
2022/06/04 05:02:15;;;;;;;;;;;;;;;24.27;56.54;99503.03;2084418;28;20247;-48
2022/06/04 05:03:15;;;;;;;;;;;;;;;24.26;56.40;99502.19;2079923;28;19955;-51
2022/06/04 05:04:16;;;;;;;;;;;;;;;24.27;56.44;99508.53;2077962;28;20400;-53
2022/06/04 05:05:16;;;;;;;;;;;;;;;24.26;56.61;99506.84;2078748;28;20038;-51
2022/06/04 05:06:17;;;;;;;;;;;;;;;24.26;56.62;99506.84;2080871;28;20290;-48
2022/06/04 05:07:17;;;;;;;;;;;;;;;24.25;56.59;99505.97;2076451;28;20410;-51
2022/06/04 05:08:18;;;;;;;;;;;;;;;24.26;56.70;99507.69;2083735;28;19955;-48
2022/06/04 05:09:19;;;;;;;;;;;;;;;24.27;56.65;99508.53;2082438;28;19928;-49
2022/06/04 05:10:19;;;;;;;;;;;;;;;24.26;56.63;99504.94;2077879;28;19917;-51
2022/06/04 05:11:21;;;;;;;;;;;;;;;24.25;56.51;99503.22;2081327;28;19916;-50
2022/06/04 05:12:21;;;;;;;;;;;;;;;24.26;56.66;99502.19;2083864;28;19934;-50
2022/06/04 05:13:22;;;;;;;;;;;;;;;24.26;56.66;99504.94;2081330;28;19994;-52
2022/06/04 05:14:22;;;;;;;;;;;;;;;24.26;56.52;99504.94;2083340;28;19921;-49
2022/06/04 05:15:23;;;;;;;;;;;;;;;24.27;56.53;99505.78;2080713;28;19990;-48
2022/06/04 05:16:24;;;;;;;;;;;;;;;24.26;56.60;99507.69;2087841;28;19923;-52
2022/06/04 05:17:25;;;;;;;;;;;;;;;24.26;56.44;99501.34;2087919;28;19919;-49
2022/06/04 05:18:25;;;;;;;;;;;;;;;24.26;56.53;99506.84;2086244;28;19916;-52
2022/06/04 05:19:25;;;;;;;;;;;;;;;24.26;56.47;99502.19;2085697;28;19983;-49
2022/06/04 05:20:25;;;;;;;;;;;;;;;24.26;56.52;99501.34;2086015;28;19923;-52
2022/06/04 05:21:35;;;;;;;;;;;;;;;24.26;56.52;99510.44;2081275;28;19943;-50
2022/06/04 05:22:35;;;;;;;;;;;;;;;24.26;56.40;99506.84;2087192;28;20477;-50
2022/06/04 05:23:35;;;;;;;;;;;;;;;24.26;56.44;99510.44;2084528;28;19916;-51
2022/06/04 05:24:36;;;;;;;;;;;;;;;24.25;56.77;99505.97;2087012;28;20338;-49
2022/06/04 05:25:37;;;;;;;;;;;;;;;24.25;56.50;99500.47;2091156;28;19938;-49
2022/06/04 05:26:38;;;;;;;;;;;;;;;24.26;56.40;99515.13;2085158;28;20188;-51
2022/06/04 05:27:38;;;;;;;;;;;;;;;24.26;56.59;99501.34;2089408;28;19927;-51
2022/06/04 05:28:38;;;;;;;;;;;;;;;24.24;56.57;99504.28;2087569;28;20495;-50
2022/06/04 05:29:39;;;;;;;;;;;;;;;24.25;56.41;99503.22;2083205;28;19920;-50
2022/06/04 05:30:40;;;;;;;;;;;;;;;24.24;56.49;99504.28;2092247;28;20340;-51
2022/06/04 05:31:40;;;;;;;;;;;;;;;24.24;56.53;99501.53;2081358;28;20109;-48
2022/06/04 05:32:41;;;;;;;;;;;;;;;24.24;56.56;99504.28;2091755;28;20334;-48
2022/06/04 05:33:41;;;;;;;;;;;;;;;24.24;56.55;99503.44;2092918;28;20026;-49
2022/06/04 05:34:41;;;;;;;;;;;;;;;24.24;56.80;99498.78;2085436;28;20716;-51
2022/06/04 05:35:42;;;;;;;;;;;;;;;24.23;56.61;99502.59;2085990;28;20613;-49
2022/06/04 05:36:42;;;;;;;;;;;;;;;24.24;56.76;99504.28;2077973;28;19924;-48
2022/06/04 05:37:42;;;;;;;;;;;;;;;24.25;56.87;99505.13;2078009;28;19913;-50